Résultats

La Ronde des Mineurs - 15 km. Édition 2022.

15.5 Km
27/03/2022 à 10:00:00 - Greasque (Bouches-du-Rhône)
201 arrivant(e)s.


 
Les autres classements de cet évènement




Place▲ Temps Dossard Nom Prenom Categ #Categ Sexe #Sexe ClubVit Moy Diplôme Partager
1 00:59:59 500 BAUDOIN THIBAUD SEM 1 M 1 SPORTADDICT AUBAGNE15.50
2 01:01:36 447 TRADOTTI ROMAIN SEM 2 M 2 TRICASTIN TRIATHLON CLUB15.10
3 01:02:24 483 FORTINI SERGE M0M 1 M 3 LE LIEVRE ET LA TORTUE ASCPR14.90
4 01:02:33 506 PAMPLONA TONY M2M 1 M 4 14.87
5 01:03:24 461 FOURNILLER JULES SEM 3 M 5 14.67
6 01:03:29 518 JAUFFRET FABRICE SEM 4 M 6 USTM JOGGING14.65
7 01:04:02 414 LANNES FRANCOIS SEM 5 M 7 14.52
8 01:04:56 504 GAUBERT VALENTIN SEM 6 M 8 14.32
9 01:05:55 479 CALAIS GABRIEL M0M 2 M 9 14.11
10 01:06:22 496 SAHLI AHMED M3M 1 M 10 ACP MARSEILLE14.01
11 01:07:30 384 ROUSSELLE XAVIER M2M 2 M 11 COURIR A SAUSSET13.78
12 01:08:21 340 LEFEVER ERWAN ESM 1 M 12 13.61
13 01:08:42 494 RICHEDA GREGORY M1M 1 M 13 INDIVIDUEL13.54
14 01:08:53 475 CAYREL PIERRE-LOUIS M1M 2 M 14 ATOUSPORTS-HESPERANGES13.50
15 01:09:13 432 HARSTRICH STEVEN SEM 7 M 15 13.44
16 01:09:32 463 RIVIER JEROME M1M 3 M 16 CLES GARDANNE TRIATHLON13.37
17 01:09:46 313 DALLA-COSTA LUCA JUM 1 M 17 13.33
18 01:10:19 468 HANNA PIERRE M4M 1 M 18 13.23
19 01:11:02 516 MADEC MIKAEL M2M 3 M 19 COURIR A FUVEAU13.09
20 01:11:23 486 MAURIN JEAN-MARC M1M 4 M 20 AUBAGNE TRIATHLON13.03
21 01:12:32 519 PROUST OLIVIER M4M 2 M 21 CLES GARDANNE TRIATHLON12.82
22 01:12:42 374 BOISBINEUF ERIC M2M 4 M 22 AUBAGNE12.79
23 01:13:25 343 DROMER NICOLAS M2M 5 M 23 NICOLAS DROMER12.67
24 01:13:38 371 JEAN OLIVIER M3M 2 M 24 AIX ATHLE PROVENCE12.63
25 01:14:24 473 BAKIRDJIAN VIKEN M0M 3 M 25 RUNNERS DE L EXTREME12.50
26 01:14:27 599 JOUCERAND GREGORY M1M 5 M 26 CN GAP TRIATHLON12.49
27 01:14:35 477 SIMON NICOLAS M1M 6 M 27 TEAM LEFFE12.47
28 01:14:43 438 CAVALLI PATRICK M5M 1 M 28 ATHLETIC BERRE CLUB12.45
29 01:14:46 462 HASSEN FABRICE M1M 7 M 29 COURIR A SAUSSET12.44
30 01:15:37 351 DROITCOURT THOMAS M0M 4 M 30 LA FOULEE DE GREASQUE12.30
31 01:15:50 439 MERLE PHILIPPE M5M 2 M 31 CLES GARDANNE TRIATHLON12.26
32 01:16:00 360 LIVERNETTE NATHALIE M2F 1 F 1 COURIR A FUVEAU12.24
33 01:16:09 459 JOUVE LAURENT M3M 3 M 32 AIX ATHLE PROVENCE12.21
34 01:16:34 347 MINOIS JUSTINE SEF 1 F 2 12.15
35 01:16:50 358 DEGOT YANNICK M2M 6 M 33 SAINT MAXIMIN ATHLETIC CLUB12.10
36 01:17:14 350 GODDARD FRANCOIS M3M 4 M 34 COURIR A FUVEAU12.04
37 01:17:35 325 SCOTTI MARIANNE M0F 1 F 3 11.99
38 01:17:38 334 DANTI FRANCOIS M3M 5 M 35 11.98
39 01:18:04 420 DEGHETTO FREDERIC M2M 7 M 36 COURIR A FUVEAU11.91
40 01:18:21 375 VERGULDEZOONE PASCAL M3M 6 M 37 STADIUM CLUB MARIGNANAIS11.87
41 01:18:36 365 CHOSSAT LOIC M2M 8 M 38 11.83
42 01:18:40 505 ANDUJAR MATTHIEU SEM 8 M 39 11.82
43 01:19:47 507 BALATRE NICOLAS M1M 8 M 40 11.66
44 01:19:57 406 MOURON MICHEL M5M 3 M 41 COURIR A FUVEAU11.63
45 01:20:11 436 GALANAKIS ERIC M4M 3 M 42 CLES GARDANNE TRIATHLON11.60
46 01:20:18 443 FAMECHON CHRISTOPHE M3M 7 M 43 CABALLO BLANCO11.58
47 01:20:19 491 GEVIA JEAN-MICHEL M5M 4 M 44 SANS11.58
48 01:20:40 359 DESCHANEL GAUTIER M2M 9 M 45 11.53
49 01:20:43 408 RAOUX JEROME M2M 10 M 46 11.52
50 01:20:46 317 COTON PHILIPPE SEM 9 M 47 11.51
51 01:21:23 441 JACQUINET DAVID M0M 5 M 48 11.43
52 01:21:28 454 YACHOU KARIM M2M 11 M 49 SECURITEST11.42
53 01:21:41 451 DAVOUST JEAN M2M 12 M 50 STID11.39
54 01:21:53 429 MACAREZ MAXIME M0M 6 M 51 COURIR A FUVEAU11.36
55 01:21:55 457 COLADO HERVE M2M 13 M 52 FIT HOUSE11.35
56 01:22:10 346 SEVILLA FREDERIC M2M 14 M 53 STADIUM CLUB MARIGNANAIS11.32
57 01:22:35 355 LONCHAMPT WILLIAM M0M 7 M 54 OCCP LA CIOTAT11.26
58 01:23:02 302 CHARLES PAUL SEM 10 M 55 11.20
59 01:23:09 498 REBROND FREDERIC M1M 9 M 56 11.18
60 01:23:21 478 NOEUVEGLISE PIERRE M6M 1 M 57 ECOS EGUILLES11.16
61 01:23:27 466 VILLAESCUSA FRANCOIS M1M 10 M 58 COURIR A SAUSSET11.14
62 01:23:30 301 BASTID SIAN M1F 1 F 4 ECOS EGUILLES11.14
63 01:23:38 425 AHMIM ALI M2M 15 M 59 COURIR A FUVEAU11.12
64 01:23:44 378 GALVEZ ANTHONY M0M 8 M 60 COURIR A SAUSSET11.11
65 01:24:05 424 REBOUL JEAN-PHILIPPE M0M 9 M 61 LES RUNNERS DE L'EXTREME11.06
66 01:24:20 417 CLEVY ROLAND M3M 8 M 62 AIX ATHLE PROVENCE11.03
67 01:24:43 412 DIEVAL THOMAS M0M 10 M 63 10.98
68 01:25:00 416 FOURNIER AUGUSTIN M1M 11 M 64 10.94
69 01:25:01 428 SATTA BRUNO M1M 12 M 65 LE LIEVRE ET LA TORTUE10.94
70 01:25:01 314 BAUCHEMIN THOMAS SEM 11 M 66 10.94
71 01:25:03 409 MANGIN LAURENCE M3F 1 F 5 LES FOULEES DU LORIOT AURIOL10.93
72 01:25:14 356 MICHELET PAULE M0F 2 F 6 10.91
73 01:26:09 430 DREVET NATHALIE M4F 1 F 7 EGUILLES ECOS RUNNING10.80
74 01:26:19 370 HOPP CEDRIC M3M 9 M 67 10.77
75 01:26:39 373 CHATAIGNIER FABIEN M0M 11 M 68 10.73
76 01:26:59 492 FAVRIN PHILIPPE M5M 5 M 69 10.69
77 01:27:17 444 N:Anonyme 444 P:Anonyme 444 M2M 16 M 70 COURIR A FUVEAU10.65
78 01:27:19 485 VELLUTINI CHRISTINE M4F 2 F 8 CLES GARDANNE TRIATHLON10.65
79 01:27:32 405 VIVIAND NATHALIE M1F 2 F 9 ENDURANCE ATTITUDE10.62
80 01:28:10 341 DOMARADZKI MARC M1M 13 M 71 AIX ATHLE PROVENCE10.55
81 01:28:12 469 OBIDIG-VETTORI CHRISTOPHE M2M 17 M 72 CLES GARDANNE TRIATHLON10.54
82 01:28:20 512 GAUBERT JEAN-LUC M5M 6 M 73 CLES GARDANNE/KMS10.53
83 01:28:29 453 MACCARIO GEORGES M4M 4 M 74 STID10.51
84 01:28:31 501 ROEDERER ALAIN M3M 10 M 75 10.51
85 01:28:44 339 MARTIN GREGOIRE M1M 14 M 76 10.48
86 01:28:47 377 DERUYTER GUILLAUME M0M 12 M 77 COURIR A SAUSSET10.47
87 01:29:01 515 PRIEUR LEO ESM 2 M 78 10.45
88 01:29:02 511 N:Anonyme 511 P:Anonyme 511 M4F 3 F 10 COURIR A FUVEAU10.45
89 01:29:07 413 BOREL CHRISTOPHE M1M 15 M 79 10.44
90 01:29:15 376 CELENTANO JACQUES M6M 2 M 80 COURIR A SAUSSET10.42
91 01:29:16 499 ESCALLE CORALIE M0F 3 F 11 10.42
92 01:29:23 344 NGUYEN CHRISTOPHE M2M 18 M 81 10.40
93 01:29:37 411 AVRAN ILENA SEF 2 F 12 AIX ATHLE PROVENCE10.38
94 01:30:02 322 VENTURA ADELINE SEF 3 F 13 10.33
95 01:30:02 435 HENNEQUIN THIBAUD M0M 13 M 82 10.33
96 01:30:13 456 SALINERO STEPHANE M1M 16 M 83 FIT HOUSE10.31
97 01:30:35 380 HUSS SUZANNE M3F 2 F 14 COURIR A SAUSSET10.27
98 01:30:46 323 KAHN NINA SEF 4 F 15 10.25
99 01:30:49 386 SOLER PATRICK M6M 3 M 84 COURIR A SAUSSET10.24
100 01:31:05 488 PATRIZI FLORENT M1M 17 M 85 10.21
101 01:31:16 434 KIROUBASSAMOUTTIRAM DIVAHAR M2M 19 M 86 SPEEDY CLUB DE PROVENCE10.19